Time;durP1;ratioP1;P1;durP2;ratioP2;P2;SDS_P1;SDS_P2;PMS_P1;PMS_P2;Temp;Humidity;BMP_temperature;BMP_pressure;BME280_temperature;BME280_humidity;BME280_pressure;Samples;Min_cycle;Max_cycle;Signal;HPM_P1;HPM_P2
2023/01/30 00:01:39;;;;;;;19.37;10.80;;;;;;;1.62;74.66;95329.13;5061400;28;20210;-74
2023/01/30 00:04:07;;;;;;;16.53;10.33;;;;;;;1.53;75.00;95334.09;5062151;28;20208;-74
2023/01/30 00:06:34;;;;;;;18.97;11.00;;;;;;;1.54;75.37;95320.72;5061846;28;20830;-74
2023/01/30 00:09:01;;;;;;;14.87;9.50;;;;;;;1.56;75.09;95324.09;5061825;28;21155;-74
2023/01/30 00:11:28;;;;;;;16.87;10.20;;;;;;;1.58;74.49;95328.28;5061974;28;20679;-75
2023/01/30 00:13:55;;;;;;;22.70;11.20;;;;;;;1.43;75.46;95315.69;5060225;28;20748;-75
2023/01/30 00:16:22;;;;;;;15.10;10.60;;;;;;;1.56;74.73;95326.59;5062981;28;20206;-78
2023/01/30 00:18:49;;;;;;;17.13;10.93;;;;;;;1.55;74.95;95337.44;5063477;28;20244;-74
2023/01/30 00:21:18;;;;;;;16.53;10.67;;;;;;;1.40;75.85;95317.34;5062554;28;20289;-73
2023/01/30 00:23:44;;;;;;;17.10;10.37;;;;;;;1.57;75.06;95331.59;5060773;28;20205;-73
2023/01/30 00:26:12;;;;;;;18.83;11.07;;;;;;;1.60;74.76;95330.78;5061569;28;20935;-75
2023/01/30 00:28:40;;;;;;;20.33;10.67;;;;;;;1.42;75.74;95303.16;5063411;28;20213;-82
2023/01/30 00:31:07;;;;;;;21.87;10.87;;;;;;;1.56;75.00;95334.09;5061008;28;20205;-77
2023/01/30 00:33:33;;;;;;;18.33;10.57;;;;;;;1.45;75.51;95325.72;5062488;28;20206;-75
2023/01/30 00:36:02;;;;;;;18.00;11.10;;;;;;;1.44;76.27;95324.88;5061850;28;20205;-75
2023/01/30 00:38:30;;;;;;;18.97;10.17;;;;;;;1.46;75.86;95320.72;5062437;28;20297;-75
2023/01/30 00:40:57;;;;;;;18.53;10.20;;;;;;;1.50;74.46;95301.50;5060416;28;20213;-77
2023/01/30 00:49:11;;;;;;;19.57;10.40;;;;;;;1.50;74.51;95314.88;5063960;28;20243;-75
2023/01/30 00:51:37;;;;;;;18.33;10.03;;;;;;;1.47;74.66;95314.03;5065358;28;20190;-75
2023/01/30 00:54:06;;;;;;;16.73;10.70;;;;;;;1.51;75.87;95306.53;5066073;28;20202;-77
2023/01/30 00:56:32;;;;;;;17.43;9.93;;;;;;;1.50;75.17;95307.34;5066432;28;20217;-74
2023/01/30 00:58:59;;;;;;;16.17;9.90;;;;;;;1.45;75.81;95309.03;5065529;28;20209;-75
2023/01/30 01:01:26;;;;;;;19.60;10.30;;;;;;;1.41;75.70;95301.47;5063906;28;20276;-77
2023/01/30 01:03:53;;;;;;;16.10;9.77;;;;;;;1.45;75.49;95313.19;5065369;28;20685;-75
2023/01/30 01:06:20;;;;;;;15.03;9.77;;;;;;;1.45;75.53;95303.19;5065332;28;20272;-76
2023/01/30 01:08:46;;;;;;;16.23;9.37;;;;;;;1.36;75.11;95311.47;5065292;28;20213;-74
2023/01/30 01:11:23;;;;;;;16.50;10.03;;;;;;;1.39;75.96;95298.13;5065924;28;20213;-74
2023/01/30 01:13:51;;;;;;;20.40;10.53;;;;;;;1.29;75.73;95308.06;5064893;28;20221;-76
2023/01/30 01:16:18;;;;;;;16.33;8.40;;;;;;;1.28;75.70;95296.38;5064877;28;20201;-83
2023/01/30 01:18:44;;;;;;;16.43;9.40;;;;;;;1.30;75.64;95307.25;5063537;28;20259;-75
2023/01/30 01:21:12;;;;;;;18.53;10.20;;;;;;;1.34;76.29;95301.44;5064917;28;20759;-74
2023/01/30 01:23:39;;;;;;;13.17;8.60;;;;;;;1.29;76.09;95273.03;5065805;28;20202;-75
2023/01/30 01:26:05;;;;;;;14.13;9.83;;;;;;;1.37;75.74;95290.59;5067421;28;20230;-75
2023/01/30 01:28:34;;;;;;;14.77;10.00;;;;;;;1.34;75.99;95293.94;5063490;28;20603;-77
2023/01/30 01:31:00;;;;;;;18.30;10.27;;;;;;;1.36;75.91;95292.28;5064239;28;20213;-75
2023/01/30 01:33:27;;;;;;;14.50;8.83;;;;;;;1.36;75.64;95282.25;5066959;28;20836;-74
2023/01/30 01:35:55;;;;;;;16.47;10.03;;;;;;;1.40;76.03;95282.28;5063878;28;20216;-74
2023/01/30 01:38:22;;;;;;;20.00;9.70;;;;;;;1.35;75.82;95283.09;5064611;28;20213;-75
2023/01/30 01:41:05;;;;;;;15.57;9.20;;;;;;;1.36;76.14;95286.44;5064401;28;20282;-74
2023/01/30 01:43:36;;;;;;;14.43;9.60;;;;;;;1.39;76.15;95285.59;5065194;28;20206;-76
2023/01/30 01:46:09;;;;;;;15.33;9.67;;;;;;;1.39;75.86;95291.44;5062907;28;20673;-77
2023/01/30 01:48:38;;;;;;;20.57;9.00;;;;;;;1.46;76.11;95282.31;5065209;28;20271;-78
2023/01/30 01:51:11;;;;;;;15.77;9.03;;;;;;;1.43;75.67;95287.31;5063366;28;20220;-77
2023/01/30 01:53:44;;;;;;;17.50;9.40;;;;;;;1.41;75.59;95284.78;5064355;28;20198;-77
2023/01/30 01:56:12;;;;;;;14.13;9.33;;;;;;;1.33;76.14;95281.41;5064407;28;20203;-76
2023/01/30 01:58:45;;;;;;;14.63;8.80;;;;;;;1.34;75.71;95283.06;5063573;28;20640;-76
2023/01/30 02:01:12;;;;;;;13.23;7.80;;;;;;;1.30;75.98;95291.41;5063154;28;20652;-76
2023/01/30 02:03:45;;;;;;;15.27;8.37;;;;;;;1.28;76.36;95291.38;5062387;28;20210;-75
2023/01/30 02:06:14;;;;;;;15.50;8.83;;;;;;;1.34;75.09;95278.91;5063088;28;20229;-77
2023/01/30 02:08:45;;;;;;;12.70;9.13;;;;;;;1.30;76.32;95287.22;5062915;28;20210;-75
2023/01/30 02:11:19;;;;;;;14.37;9.67;;;;;;;1.28;76.29;95288.88;5064367;28;20466;-74
2023/01/30 02:13:49;;;;;;;16.67;9.03;;;;;;;1.29;75.96;95285.53;5064013;28;20899;-74
2023/01/30 02:16:16;;;;;;;15.63;8.07;;;;;;;1.30;75.84;95287.22;5063439;28;20619;-74
2023/01/30 02:18:44;;;;;;;13.57;8.27;;;;;;;1.33;75.38;95287.25;5064107;28;20684;-74
2023/01/30 02:21:52;;;;;;;12.03;8.83;;;;;;;1.27;75.74;95287.19;5064308;28;20201;-74
2023/01/30 02:24:40;;;;;;;16.17;9.67;;;;;;;1.31;76.18;95283.06;5060058;28;20295;-75
2023/01/30 02:27:24;;;;;;;12.87;8.37;;;;;;;1.32;75.96;95287.22;5063200;28;20283;-75
2023/01/30 02:33:28;;;;;;;18.20;9.30;;;;;;;1.26;76.37;95290.53;5067120;27;20555;-74
2023/01/30 02:36:04;;;;;;;14.50;8.93;;;;;;;1.13;76.16;95263.78;5067917;28;20709;-76
2023/01/30 02:38:40;;;;;;;14.13;8.80;;;;;;;1.25;75.44;95293.88;5066626;28;20593;-75
2023/01/30 02:41:17;;;;;;;17.83;9.90;;;;;;;1.19;76.03;95265.47;5046584;28;20197;-76
2023/01/30 02:43:52;;;;;;;14.90;8.67;;;;;;;1.30;76.19;95276.38;5047327;28;20206;-75
2023/01/30 02:46:24;;;;;;;14.63;8.90;;;;;;;1.39;75.63;95275.59;5046692;28;20267;-75
2023/01/30 02:48:58;;;;;;;14.80;8.93;;;;;;;1.44;76.39;95274.78;5046559;28;20606;-75
2023/01/30 02:51:29;;;;;;;14.77;9.07;;;;;;;1.50;74.81;95276.47;5045196;28;20237;-75
2023/01/30 02:53:57;;;;;;;15.40;8.73;;;;;;;1.44;74.97;95271.44;5047060;28;20203;-76
2023/01/30 02:56:24;;;;;;;12.30;9.97;;;;;;;1.44;75.31;95273.94;5046583;28;20202;-75
2023/01/30 02:58:56;;;;;;;15.97;8.57;;;;;;;1.49;75.94;95278.13;5046019;28;20206;-75
2023/01/30 03:01:58;;;;;;;11.83;7.93;;;;;;;1.57;75.06;95280.69;5046903;28;20199;-75
2023/01/30 03:05:07;;;;;;;14.07;8.37;;;;;;;1.54;74.98;95285.66;5046757;28;20737;-76
2023/01/30 03:07:44;;;;;;;16.10;8.83;;;;;;;1.55;74.77;95287.34;5046204;28;20206;-75
2023/01/30 03:10:21;;;;;;;11.80;8.57;;;;;;;1.53;74.10;95269.81;5046429;28;20210;-76
2023/01/30 03:12:53;;;;;;;14.13;8.50;;;;;;;1.56;74.34;95268.97;5045983;28;20659;-75
2023/01/30 03:15:33;;;;;;;12.47;8.73;;;;;;;1.56;74.06;95263.97;5046967;28;20202;-74
2023/01/30 03:18:01;;;;;;;11.33;8.10;;;;;;;1.58;74.80;95262.31;5046898;28;20203;-74
2023/01/30 03:20:29;;;;;;;11.77;8.10;;;;;;;1.58;74.06;95263.16;5046275;28;20264;-75
2023/01/30 03:22:56;;;;;;;9.67;8.10;;;;;;;1.56;73.61;95259.81;5046230;28;20215;-76
2023/01/30 03:25:26;;;;;;;13.47;8.40;;;;;;;1.52;74.65;95250.59;5046744;28;20653;-75
2023/01/30 03:27:55;;;;;;;14.13;9.00;;;;;;;1.55;74.53;95243.09;5046237;28;20305;-75
2023/01/30 03:30:24;;;;;;;14.70;9.43;;;;;;;1.52;74.15;95244.75;5045869;28;20218;-75
2023/01/30 03:32:51;;;;;;;16.13;8.93;;;;;;;1.42;74.49;95241.41;5045593;28;20380;-75
2023/01/30 03:35:18;;;;;;;13.33;8.97;;;;;;;1.45;74.30;95236.41;5045847;28;20206;-75
2023/01/30 03:37:46;;;;;;;14.70;8.13;;;;;;;1.47;74.03;95233.91;5045576;28;20203;-75
2023/01/30 03:40:15;;;;;;;12.33;8.17;;;;;;;1.43;73.79;95238.06;5045974;28;20231;-74
2023/01/30 03:42:42;;;;;;;13.63;8.00;;;;;;;1.43;73.95;95229.72;5042613;28;20284;-76
2023/01/30 03:45:11;;;;;;;14.93;7.67;;;;;;;1.39;74.21;95235.53;5033375;28;20210;-75
2023/01/30 03:47:37;;;;;;;12.07;7.90;;;;;;;1.38;74.87;95228.84;5032340;28;20673;-75
2023/01/30 03:50:05;;;;;;;14.87;8.70;;;;;;;1.34;74.58;95238.00;5032685;28;20222;-76
2023/01/30 03:52:34;;;;;;;11.03;7.90;;;;;;;1.29;75.53;95227.97;5032072;28;20259;-74
2023/01/30 03:55:03;;;;;;;14.03;8.90;;;;;;;1.30;74.99;95224.63;5032729;28;20210;-74
2023/01/30 03:57:30;;;;;;;13.50;8.83;;;;;;;1.30;74.68;95227.13;5032802;28;20715;-75
2023/01/30 03:59:56;;;;;;;11.90;8.70;;;;;;;1.25;74.43;95226.28;5032383;28;20207;-75
2023/01/30 04:02:24;;;;;;;14.40;8.23;;;;;;;1.20;74.80;95225.44;5031364;28;20211;-75
2023/01/30 04:04:51;;;;;;;16.17;8.80;;;;;;;1.19;74.51;95222.94;5032717;28;20991;-75
2023/01/30 04:07:18;;;;;;;11.47;8.13;;;;;;;1.19;75.00;95227.94;5032672;28;20704;-74
2023/01/30 04:09:45;;;;;;;14.40;8.10;;;;;;;1.24;75.09;95221.25;5033248;28;20205;-75
2023/01/30 04:12:13;;;;;;;13.20;7.87;;;;;;;1.34;74.22;95222.97;5032765;28;20223;-75
2023/01/30 04:14:40;;;;;;;13.60;8.63;;;;;;;1.33;74.44;95216.31;5033022;28;20681;-75
2023/01/30 04:17:07;;;;;;;13.90;8.50;;;;;;;1.32;73.67;95225.47;5032448;28;20712;-75
2023/01/30 04:19:34;;;;;;;9.83;7.83;;;;;;;1.29;74.62;95215.44;5032593;28;20207;-76
2023/01/30 04:22:01;;;;;;;13.77;7.97;;;;;;;1.15;74.34;95222.06;5032021;28;20222;-75
2023/01/30 04:24:27;;;;;;;14.30;7.97;;;;;;;1.05;75.80;95220.34;5032490;28;20754;-75
2023/01/30 04:26:54;;;;;;;11.80;8.83;;;;;;;0.98;75.77;95209.47;5032625;28;20214;-77
2023/01/30 04:29:22;;;;;;;14.47;8.30;;;;;;;0.99;76.47;95225.34;5032425;28;20707;-74
2023/01/30 04:31:49;;;;;;;17.03;9.20;;;;;;;1.00;75.75;95220.31;5032005;28;20242;-75
2023/01/30 04:34:16;;;;;;;9.67;7.77;;;;;;;0.99;75.99;95225.34;5032677;28;20203;-75
2023/01/30 04:36:43;;;;;;;13.87;9.57;;;;;;;1.01;75.53;95211.97;5033336;28;20288;-76
2023/01/30 04:39:09;;;;;;;12.77;8.90;;;;;;;1.05;76.24;95219.50;5031980;28;20232;-76
2023/01/30 04:41:36;;;;;;;14.77;9.37;;;;;;;1.11;75.48;95214.53;5032322;28;20203;-74
2023/01/30 04:44:03;;;;;;;16.17;9.83;;;;;;;1.11;75.06;95220.38;5031606;28;20207;-75
2023/01/30 04:46:31;;;;;;;11.30;7.70;;;;;;;1.16;75.59;95211.22;5031810;28;20203;-76
2023/01/30 04:48:58;;;;;;;15.77;9.07;;;;;;;1.09;76.82;95212.03;5032256;28;20215;-75
2023/01/30 04:51:25;;;;;;;12.40;8.37;;;;;;;1.06;75.57;95202.00;5032420;28;20199;-76
2023/01/30 04:53:51;;;;;;;15.67;10.03;;;;;;;1.05;76.81;95204.47;5031227;28;20227;-74
2023/01/30 04:56:18;;;;;;;12.60;8.87;;;;;;;1.05;76.66;95196.97;5031168;28;20276;-75
2023/01/30 04:58:45;;;;;;;13.70;9.50;;;;;;;1.05;76.04;95192.81;5031809;28;20206;-75
2023/01/30 05:01:14;;;;;;;19.07;10.10;;;;;;;1.06;76.62;95202.00;5032122;28;20207;-75
2023/01/30 05:03:42;;;;;;;13.73;9.10;;;;;;;1.08;75.70;95200.34;5031518;28;20205;-76
2023/01/30 05:06:08;;;;;;;15.70;9.43;;;;;;;1.09;76.37;95194.50;5031703;28;20206;-77
2023/01/30 05:08:35;;;;;;;15.50;9.87;;;;;;;1.06;76.83;95196.97;5031617;28;20214;-75
2023/01/30 05:11:02;;;;;;;15.73;9.27;;;;;;;1.10;76.30;95195.34;5031995;28;20674;-76
2023/01/30 05:13:29;;;;;;;29.13;16.17;;;;;;;1.11;76.62;95200.34;5030850;28;20620;-75
2023/01/30 05:15:55;;;;;;;23.50;12.63;;;;;;;1.12;76.66;95198.69;5031610;28;20660;-77
2023/01/30 05:18:22;;;;;;;15.90;10.07;;;;;;;1.05;76.47;95200.31;5031423;28;20623;-79
2023/01/30 05:20:50;;;;;;;15.07;9.40;;;;;;;1.11;77.02;95195.34;5031780;28;20207;-77
2023/01/30 05:23:17;;;;;;;17.27;9.83;;;;;;;1.01;77.07;95204.47;5031092;28;20719;-75
2023/01/30 05:25:44;;;;;;;15.07;9.57;;;;;;;1.02;78.04;95202.78;5032105;28;20203;-76
2023/01/30 05:28:10;;;;;;;17.40;10.77;;;;;;;1.05;78.22;95207.00;5031035;28;20208;-75
2023/01/30 05:30:37;;;;;;;22.93;10.90;;;;;;;1.10;77.95;95213.69;5031217;28;20762;-74
2023/01/30 05:33:04;;;;;;;19.70;10.60;;;;;;;1.15;77.76;95212.06;5030351;28;20960;-76
2023/01/30 05:35:31;;;;;;;23.13;11.70;;;;;;;1.00;77.54;95206.94;5031126;28;20664;-76
2023/01/30 05:38:01;;;;;;;21.77;11.73;;;;;;;1.05;78.44;95207.81;5031175;28;20214;-75
2023/01/30 05:40:27;;;;;;;21.90;12.13;;;;;;;1.05;78.53;95202.81;5031291;28;20615;-76
2023/01/30 05:42:54;;;;;;;23.53;12.37;;;;;;;1.02;77.93;95213.66;5030575;28;20732;-76
2023/01/30 05:45:21;;;;;;;20.03;11.67;;;;;;;1.04;78.07;95206.16;5030996;28;20215;-76
2023/01/30 05:47:51;;;;;;;23.03;11.87;;;;;;;0.93;78.48;95190.25;5031444;28;20280;-76
2023/01/30 05:50:18;;;;;;;27.63;12.37;;;;;;;1.10;78.32;95207.84;5031191;28;20331;-76
2023/01/30 05:52:45;;;;;;;19.60;11.20;;;;;;;1.07;78.68;95208.66;5030696;28;20276;-75
2023/01/30 05:55:13;;;;;;;21.97;12.97;;;;;;;1.18;78.65;95214.56;5030688;28;20222;-75
2023/01/30 05:57:40;;;;;;;21.33;11.80;;;;;;;1.14;78.52;95215.38;5030382;28;20673;-77
2023/01/30 06:00:09;;;;;;;25.07;12.73;;;;;;;1.12;77.48;95207.03;5030336;28;20211;-77
2023/01/30 06:02:35;;;;;;;23.50;11.87;;;;;;;1.11;77.97;95217.88;5030191;28;20222;-75
2023/01/30 06:05:02;;;;;;;26.13;13.17;;;;;;;1.09;78.67;95211.19;5030628;28;20293;-75
2023/01/30 06:07:29;;;;;;;26.77;13.17;;;;;;;1.21;77.27;95219.59;5031190;28;20199;-77
2023/01/30 06:09:56;;;;;;;25.40;13.50;;;;;;;1.14;77.97;95220.41;5031226;28;20214;-76
2023/01/30 06:12:24;;;;;;;25.77;14.20;;;;;;;1.19;78.59;95213.75;5030264;28;20740;-76
2023/01/30 06:14:51;;;;;;;27.63;13.37;;;;;;;1.19;77.70;95218.75;5031027;28;20296;-76
2023/01/30 06:17:17;;;;;;;25.10;14.17;;;;;;;1.22;78.51;95218.78;5030499;28;20218;-75
2023/01/30 06:19:44;;;;;;;28.67;13.97;;;;;;;1.25;78.46;95212.91;5030470;28;20668;-74
2023/01/30 06:22:11;;;;;;;28.33;14.57;;;;;;;1.33;78.07;95207.13;5030416;28;20211;-77
2023/01/30 06:24:38;;;;;;;27.27;13.90;;;;;;;1.33;77.66;95207.13;5030759;28;20218;-76
2023/01/30 06:27:04;;;;;;;27.20;15.13;;;;;;;1.38;77.06;95209.66;5031049;28;20203;-76
2023/01/30 06:29:33;;;;;;;24.43;14.50;;;;;;;1.30;78.60;95207.09;5030368;28;20264;-77
2023/01/30 06:31:59;;;;;;;26.33;14.33;;;;;;;1.30;77.27;95207.09;5030492;28;20234;-76
2023/01/30 06:34:26;;;;;;;24.40;13.53;;;;;;;1.42;77.06;95203.00;5030591;28;20218;-76
2023/01/30 06:36:53;;;;;;;22.97;13.33;;;;;;;1.35;76.91;95205.47;5030305;28;20207;-76
2023/01/30 06:39:19;;;;;;;25.70;13.70;;;;;;;1.25;76.77;95202.91;5030348;28;20284;-75
2023/01/30 06:41:46;;;;;;;26.83;13.57;;;;;;;1.32;77.67;95210.47;5030681;28;20871;-77
2023/01/30 06:44:13;;;;;;;28.70;14.47;;;;;;;1.32;76.36;95205.44;5030690;28;20203;-78
2023/01/30 06:46:41;;;;;;;26.63;14.33;;;;;;;1.24;76.90;95211.25;5030546;28;21432;-75
2023/01/30 06:49:08;;;;;;;29.40;15.13;;;;;;;1.20;77.44;95210.41;5030412;28;20203;-74
2023/01/30 06:51:35;;;;;;;25.37;13.93;;;;;;;1.23;78.34;95209.59;5030963;28;20202;-76
2023/01/30 06:54:02;;;;;;;25.57;13.60;;;;;;;1.27;77.82;95209.59;5030351;28;20230;-76
2023/01/30 06:56:28;;;;;;;31.27;14.10;;;;;;;1.36;76.52;95219.66;5031208;28;20272;-76
2023/01/30 06:58:55;;;;;;;24.83;14.13;;;;;;;1.38;76.60;95214.66;5030186;28;20199;-78
2023/01/30 07:01:22;;;;;;;24.43;13.47;;;;;;;1.46;77.05;95217.19;5030512;28;20210;-76
2023/01/30 07:03:50;;;;;;;26.80;13.73;;;;;;;1.40;77.10;95217.16;5030184;28;20203;-77
2023/01/30 07:06:17;;;;;;;26.93;14.37;;;;;;;1.47;77.09;95216.38;5029849;28;20212;-76
2023/01/30 07:08:44;;;;;;;25.97;13.33;;;;;;;1.47;76.37;95218.88;5030094;28;20203;-76
2023/01/30 07:11:11;;;;;;;22.93;13.60;;;;;;;1.39;76.92;95230.53;5030617;28;20225;-76
2023/01/30 07:13:37;;;;;;;25.47;13.77;;;;;;;1.44;76.87;95233.88;5030017;28;20923;-75
2023/01/30 07:16:04;;;;;;;24.47;13.53;;;;;;;1.46;75.75;95220.53;5030455;28;20222;-75
2023/01/30 07:18:31;;;;;;;23.53;12.60;;;;;;;1.37;75.41;95207.97;5031569;28;20214;-75
2023/01/30 07:20:59;;;;;;;26.87;12.53;;;;;;;1.53;75.67;95223.88;5034210;28;20199;-78
2023/01/30 07:23:26;;;;;;;27.33;14.47;;;;;;;1.53;76.32;95232.25;5033371;28;22255;-74
2023/01/30 07:25:54;;;;;;;24.97;13.57;;;;;;;1.58;76.06;95220.56;5033987;28;20684;-76
2023/01/30 07:28:21;;;;;;;22.50;12.97;;;;;;;1.66;75.26;95225.63;5033340;28;20230;-78
2023/01/30 07:30:51;;;;;;;49.23;18.50;;;;;;;1.73;74.85;95232.31;5033580;28;20695;-77
2023/01/30 07:33:19;;;;;;;29.07;12.80;;;;;;;1.81;74.50;95230.66;5033211;28;20743;-75
2023/01/30 07:35:46;;;;;;;22.70;12.50;;;;;;;1.92;74.08;95239.06;5034055;28;20211;-75
2023/01/30 07:38:14;;;;;;;20.83;11.77;;;;;;;1.96;74.09;95245.75;5033940;28;20264;-76
2023/01/30 07:40:40;;;;;;;25.47;12.80;;;;;;;1.95;73.73;95243.25;5033969;28;20234;-76
2023/01/30 07:43:11;;;;;;;20.57;11.53;;;;;;;2.02;72.12;95228.19;5033077;28;20218;-77
2023/01/30 07:45:39;;;;;;;17.23;10.83;;;;;;;2.01;71.35;95248.25;5033379;28;20207;-76
2023/01/30 07:48:06;;;;;;;17.73;11.10;;;;;;;1.95;72.22;95244.06;5033658;28;20215;-77
2023/01/30 07:50:33;;;;;;;16.53;11.03;;;;;;;1.95;73.44;95239.06;5033359;28;20207;-77
2023/01/30 07:53:03;;;;;;;27.73;13.23;;;;;;;2.04;73.65;95234.06;5033472;28;20416;-75
2023/01/30 07:55:31;;;;;;;25.87;14.17;;;;;;;2.10;72.71;95233.22;5033517;28;20649;-77
2023/01/30 07:57:58;;;;;;;27.67;13.30;;;;;;;2.14;72.37;95229.06;5033573;28;20223;-75
2023/01/30 08:00:25;;;;;;;27.97;12.37;;;;;;;2.18;72.14;95220.72;5032896;28;20740;-76
2023/01/30 08:02:52;;;;;;;21.70;12.07;;;;;;;2.07;72.75;95219.84;5032975;28;20234;-77
2023/01/30 08:05:19;;;;;;;20.43;10.73;;;;;;;2.11;73.00;95214.84;5033634;28;20207;-78
2023/01/30 08:07:47;;;;;;;21.10;11.03;;;;;;;2.26;72.14;95207.34;5033870;28;20207;-76
2023/01/30 08:10:14;;;;;;;16.40;10.50;;;;;;;2.21;73.39;95210.69;5032825;28;20294;-77
2023/01/30 08:12:42;;;;;;;27.30;13.67;;;;;;;2.26;72.94;95211.50;5033105;28;20685;-75
2023/01/30 08:15:10;;;;;;;25.07;13.13;;;;;;;2.27;72.40;95210.69;5032587;28;20695;-76
2023/01/30 08:17:38;;;;;;;27.80;13.60;;;;;;;2.20;72.81;95194.81;5033697;28;20638;-76
2023/01/30 08:20:05;;;;;;;22.03;11.73;;;;;;;2.17;73.29;95209.00;5033046;28;20504;-78
2023/01/30 08:22:32;;;;;;;29.67;12.97;;;;;;;2.18;73.07;95206.50;5032661;28;20265;-75
2023/01/30 08:24:59;;;;;;;23.80;11.60;;;;;;;2.30;73.30;95205.66;5032651;28;20210;-76
2023/01/30 08:27:26;;;;;;;21.00;12.00;;;;;;;2.22;73.04;95203.19;5033317;28;20718;-76
2023/01/30 08:29:54;;;;;;;24.30;11.50;;;;;;;2.29;72.22;95206.50;5032513;28;20214;-77
2023/01/30 08:32:20;;;;;;;19.60;11.17;;;;;;;2.27;72.36;95201.47;5032552;28;20726;-77
2023/01/30 08:34:47;;;;;;;19.20;10.93;;;;;;;2.35;72.76;95189.78;5032474;28;20238;-76
2023/01/30 08:37:14;;;;;;;20.67;11.70;;;;;;;2.39;72.33;95185.63;5033352;28;20264;-76
2023/01/30 08:39:41;;;;;;;22.13;11.57;;;;;;;2.40;71.44;95189.81;5032231;28;20227;-78
2023/01/30 08:42:07;;;;;;;19.20;11.53;;;;;;;2.26;71.62;95193.97;5033262;28;20211;-77
2023/01/30 08:44:34;;;;;;;29.37;14.00;;;;;;;2.30;72.28;95186.44;5032632;28;20209;-77
2023/01/30 08:47:02;;;;;;;31.70;14.77;;;;;;;2.35;71.64;95179.75;5032414;28;20260;-76
2023/01/30 08:49:29;;;;;;;29.00;14.50;;;;;;;2.40;71.68;95187.28;5032018;28;20229;-77
2023/01/30 08:51:56;;;;;;;18.13;10.33;;;;;;;2.43;71.13;95187.28;5032502;28;20217;-78
2023/01/30 08:54:23;;;;;;;23.93;13.23;;;;;;;2.43;71.85;95187.28;5032298;28;20246;-75
2023/01/30 08:56:50;;;;;;;20.13;11.80;;;;;;;2.53;71.10;95183.91;5032227;28;20719;-75
2023/01/30 08:59:16;;;;;;;20.50;11.43;;;;;;;2.59;71.22;95173.88;5032253;28;20211;-76
2023/01/30 09:01:43;;;;;;;14.73;9.27;;;;;;;2.60;69.91;95170.53;5031872;28;20689;-77
2023/01/30 09:04:11;;;;;;;20.47;10.50;;;;;;;2.34;70.05;95158.03;5032233;28;20687;-76
2023/01/30 09:06:38;;;;;;;15.17;8.73;;;;;;;2.54;70.31;95178.06;5031904;28;20203;-77
2023/01/30 09:09:05;;;;;;;16.40;8.83;;;;;;;2.50;70.06;95168.88;5031498;28;20700;-74
2023/01/30 09:11:31;;;;;;;13.60;8.73;;;;;;;2.53;69.58;95168.88;5031551;28;20222;-74
2023/01/30 09:13:58;;;;;;;13.53;8.63;;;;;;;2.57;68.78;95168.03;5031958;28;20238;-75
2023/01/30 09:16:25;;;;;;;13.97;9.00;;;;;;;2.42;70.22;95164.72;5031886;28;20203;-76
2023/01/30 09:18:52;;;;;;;9.37;7.73;;;;;;;2.32;69.69;95164.72;5031398;28;20721;-78
2023/01/30 09:21:20;;;;;;;13.03;7.23;;;;;;;2.31;69.76;95162.19;5031110;28;20256;-76
2023/01/30 09:23:47;;;;;;;14.60;8.27;;;;;;;2.26;69.92;95162.19;5031609;28;20203;-76
2023/01/30 09:26:14;;;;;;;12.63;8.50;;;;;;;2.22;70.42;95155.53;5031826;28;20369;-76
2023/01/30 09:28:41;;;;;;;16.37;9.50;;;;;;;2.24;71.25;95158.84;5031789;28;20222;-79
2023/01/30 09:31:07;;;;;;;11.63;7.63;;;;;;;2.26;70.33;95169.72;5030597;28;20621;-76
2023/01/30 09:33:34;;;;;;;17.23;9.50;;;;;;;2.23;70.91;95163.88;5031274;28;20231;-72
2023/01/30 09:36:01;;;;;;;12.63;8.80;;;;;;;2.16;71.24;95158.03;5031473;28;20206;-75
2023/01/30 09:38:29;;;;;;;17.57;9.07;;;;;;;2.24;71.47;95155.50;5031491;28;20211;-76
2023/01/30 09:41:11;;;;;;;14.53;9.57;;;;;;;2.25;70.54;95144.66;5030107;28;20244;-76
2023/01/30 09:44:02;;;;;;;13.63;9.03;;;;;;;2.21;71.69;95148.00;5030490;28;20195;-77
2023/01/30 09:46:40;;;;;;;15.83;8.90;;;;;;;2.26;70.49;95143.81;5031608;28;20203;-74
2023/01/30 09:49:22;;;;;;;14.20;8.97;;;;;;;2.28;71.35;95142.13;5029418;28;20782;-77
2023/01/30 09:51:58;;;;;;;15.27;9.33;;;;;;;2.30;71.36;95136.28;5030977;28;20207;-76
2023/01/30 09:54:30;;;;;;;12.80;8.03;;;;;;;2.40;71.15;95137.13;5031703;28;20307;-75
2023/01/30 09:57:10;;;;;;;13.87;8.03;;;;;;;2.39;70.72;95131.28;5030979;28;20207;-79
2023/01/30 09:59:47;;;;;;;12.50;8.43;;;;;;;2.32;70.50;95138.81;5030317;28;20491;-76
2023/01/30 10:02:29;;;;;;;13.77;8.77;;;;;;;2.13;70.49;95132.97;5030254;28;20268;-77
2023/01/30 10:04:58;;;;;;;14.70;9.43;;;;;;;2.12;70.74;95120.44;5030573;28;20214;-76
2023/01/30 10:07:32;;;;;;;14.57;10.07;;;;;;;2.10;71.68;95117.91;5030709;28;20206;-77
2023/01/30 10:10:11;;;;;;;14.00;9.30;;;;;;;2.13;70.28;95112.91;5030329;28;20211;-77
2023/01/30 10:12:49;;;;;;;16.90;9.33;;;;;;;2.25;69.75;95109.53;5029654;28;20680;-77
2023/01/30 10:15:49;;;;;;;14.93;8.80;;;;;;;2.28;69.84;95102.84;5029475;28;20237;-81
2023/01/30 10:18:40;;;;;;;20.10;10.07;;;;;;;2.29;69.62;95093.66;5005945;28;20205;-75
2023/01/30 10:21:15;;;;;;;13.80;8.60;;;;;;;2.33;69.61;95090.31;5024178;28;20292;-63
2023/01/30 10:23:54;;;;;;;30.20;15.30;;;;;;;2.47;71.56;95088.63;5027418;28;20202;-67
2023/01/30 10:26:26;;;;;;;19.57;10.30;;;;;;;2.64;68.77;95079.38;5029841;28;20207;-75
2023/01/30 10:28:58;;;;;;;19.53;9.93;;;;;;;2.71;68.05;95081.03;5030132;28;20219;-76
2023/01/30 10:31:28;;;;;;;15.73;9.03;;;;;;;2.67;67.32;95081.91;5029772;28;20238;-72
2023/01/30 10:34:01;;;;;;;17.43;10.00;;;;;;;2.62;66.89;95073.53;5029636;28;20685;-80
2023/01/30 10:36:36;;;;;;;18.60;9.90;;;;;;;2.60;67.57;95069.34;5031101;28;20215;-78
2023/01/30 10:39:10;;;;;;;16.33;8.77;;;;;;;2.57;67.87;95064.34;5030321;28;20241;-79
2023/01/30 10:41:48;;;;;;;15.43;9.63;;;;;;;2.57;66.95;95054.31;5030914;28;20617;-79
2023/01/30 10:44:17;;;;;;;18.60;10.80;;;;;;;2.49;67.76;95061.84;5030062;28;20194;-79
2023/01/30 10:47:11;;;;;;;16.47;10.03;;;;;;;2.46;67.03;95031.78;5031423;28;20210;-80
2023/01/30 10:49:42;;;;;;;16.67;9.33;;;;;;;2.23;66.66;94984.19;5030495;28;21462;-81
2023/01/30 10:52:25;;;;;;;19.23;10.37;;;;;;;2.63;65.92;95039.25;5030862;28;20207;-80
2023/01/30 10:55:01;;;;;;;12.20;8.77;;;;;;;2.66;66.02;95034.22;5033613;28;21104;-81
2023/01/30 10:57:43;;;;;;;17.23;10.53;;;;;;;2.57;66.91;95004.16;5035848;28;20210;-79
2023/01/30 11:00:23;;;;;;;17.17;9.73;;;;;;;2.70;65.97;95009.13;5034567;28;20677;-78
2023/01/30 11:03:00;;;;;;;16.97;10.00;;;;;;;2.71;66.30;95010.78;5034760;28;20202;-78
2023/01/30 11:05:38;;;;;;;17.27;10.10;;;;;;;2.81;66.19;95000.69;5034095;28;20296;-78
2023/01/30 11:08:21;;;;;;;16.70;9.97;;;;;;;2.87;66.12;94998.16;5033525;28;20209;-77
2023/01/30 11:10:49;;;;;;;18.60;10.80;;;;;;;2.89;66.18;95001.50;5034700;28;20206;-77
2023/01/30 11:13:20;;;;;;;20.07;10.77;;;;;;;2.86;65.88;94986.44;5033820;28;20199;-76
2023/01/30 11:15:49;;;;;;;20.40;10.60;;;;;;;2.78;65.77;94958.88;5034161;28;20227;-78
2023/01/30 11:18:17;;;;;;;19.20;11.07;;;;;;;3.05;65.91;94978.81;5034114;28;20199;-77
2023/01/30 11:20:54;;;;;;;17.80;10.43;;;;;;;3.12;64.75;94964.53;5034229;28;20203;-79
2023/01/30 11:23:25;;;;;;;16.20;9.90;;;;;;;2.99;64.83;94963.78;5033689;28;21106;-75
2023/01/30 11:25:55;;;;;;;18.83;11.13;;;;;;;2.91;65.03;94965.50;5033589;28;20294;-77
2023/01/30 11:28:25;;;;;;;15.60;10.00;;;;;;;2.78;66.64;94958.88;5032890;28;20214;-79
2023/01/30 11:30:54;;;;;;;13.67;9.43;;;;;;;2.68;66.03;94958.13;5033715;28;20739;-80
2023/01/30 11:33:24;;;;;;;17.30;10.27;;;;;;;2.79;65.71;94957.19;5034453;28;20206;-79
2023/01/30 11:35:57;;;;;;;20.37;11.43;;;;;;;2.83;66.33;94956.34;5033198;28;20227;-75
2023/01/30 11:38:25;;;;;;;17.60;9.97;;;;;;;2.80;65.78;94944.66;5033913;28;20260;-78
2023/01/30 11:41:03;;;;;;;14.53;9.07;;;;;;;2.77;65.82;94936.31;5033811;28;20226;-80
2023/01/30 11:43:33;;;;;;;20.17;11.48;;;;;;;2.71;66.59;94937.19;5034565;28;20203;-77
2023/01/30 11:46:01;;;;;;;16.57;10.60;;;;;;;2.85;67.14;94917.84;5033376;28;20207;-79
2023/01/30 11:48:33;;;;;;;20.57;11.43;;;;;;;2.94;66.24;94910.28;5033729;28;20592;-77
2023/01/30 11:51:03;;;;;;;17.30;10.40;;;;;;;3.22;65.01;94905.84;5033635;28;20210;-78